Time;durP1;ratioP1;P1;durP2;ratioP2;P2;SDS_P1;SDS_P2;PMS_P1;PMS_P2;Temp;Humidity;BMP_temperature;BMP_pressure;BME280_temperature;BME280_humidity;BME280_pressure;Samples;Min_cycle;Max_cycle;Signal;HPM_P1;HPM_P2
2023/12/01 00:01:59;;;;;;;30.75;19.50;;;;;;;-142.91;0.00;100169.13;5047129;28;20203;-71
2023/12/01 00:04:25;;;;;;;37.80;22.10;;;;;;;-142.91;0.00;100169.13;5053948;28;20653;-69
2023/12/01 00:06:53;;;;;;;37.05;20.05;;;;;;;-142.91;0.00;100169.13;5051754;28;20262;-70
2023/12/01 00:09:20;;;;;;;34.75;20.13;;;;;;;;;;5048973;28;20291;-71
2023/12/01 00:11:47;;;;;;;40.53;22.52;;;;;;;-142.91;0.00;100169.13;5047391;28;20234;-70
2023/12/01 00:14:13;;;;;;;36.65;21.48;;;;;;;-142.91;0.00;100169.13;5052012;28;21069;-69
2023/12/01 00:16:40;;;;;;;40.10;23.50;;;;;;;-142.91;0.00;100169.13;5048091;28;20199;-70
2023/12/01 00:19:07;;;;;;;38.88;23.88;;;;;;;-142.91;0.00;100169.13;5048407;28;20627;-70
2023/12/01 00:21:33;;;;;;;40.90;23.08;;;;;;;-142.91;0.00;100169.13;5053267;28;20258;-69
2023/12/01 00:24:03;;;;;;;40.67;23.60;;;;;;;-142.91;0.00;100169.13;5038669;28;20202;-70
2023/12/01 00:26:30;;;;;;;40.28;22.27;;;;;;;-142.91;0.00;100169.13;5062009;28;20258;-70
2023/12/01 00:28:56;;;;;;;42.60;22.42;;;;;;;-142.91;0.00;100169.13;5045439;28;20211;-70
2023/12/01 00:31:23;;;;;;;45.83;23.17;;;;;;;-142.91;0.00;100169.13;5061053;28;20218;-69
2023/12/01 00:33:50;;;;;;;41.35;23.67;;;;;;;-142.91;0.00;100169.13;5066472;28;20683;-70
2023/12/01 00:36:16;;;;;;;48.40;24.25;;;;;;;;;;5064443;28;20224;-69
2023/12/01 00:38:43;;;;;;;52.13;23.77;;;;;;;;;;5058413;28;20330;-69
2023/12/01 00:41:11;;;;;;;42.25;23.90;;;;;;;-142.91;0.00;100169.13;5058256;28;20221;-69
2023/12/01 00:43:38;;;;;;;36.28;21.52;;;;;;;;;;5067438;28;20204;-69
2023/12/01 00:46:05;;;;;;;38.33;22.70;;;;;;;;;;5064562;28;20219;-69
2023/12/01 00:48:31;;;;;;;36.33;20.75;;;;;;;;;;5063596;28;20280;-69
2023/12/01 00:50:58;;;;;;;42.47;23.30;;;;;;;;;;5057871;28;20224;-69
2023/12/01 00:53:24;;;;;;;38.38;23.50;;;;;;;;;;5054724;28;20234;-70
2023/12/01 00:55:51;;;;;;;44.63;23.38;;;;;;;;;;5064874;28;20194;-70
2023/12/01 00:58:20;;;;;;;40.63;22.95;;;;;;;;;;5064542;28;20225;-70
2023/12/01 01:00:46;;;;;;;34.50;22.00;;;;;;;;;;5063968;28;20202;-71
2023/12/01 01:03:13;;;;;;;40.60;22.55;;;;;;;;;;5057503;28;20195;-69
2023/12/01 01:05:39;;;;;;;46.63;23.27;;;;;;;;;;5057296;28;20300;-71
2023/12/01 01:08:06;;;;;;;37.28;21.20;;;;;;;;;;5061303;28;20202;-70
2023/12/01 01:10:33;;;;;;;38.45;20.15;;;;;;;;;;5048290;28;20195;-69
2023/12/01 01:12:59;;;;;;;33.58;20.30;;;;;;;;;;5056500;28;20661;-69
2023/12/01 01:15:27;;;;;;;36.30;20.42;;;;;;;;;;5062057;28;20299;-69
2023/12/01 01:17:53;;;;;;;37.55;21.90;;;;;;;;;;5052706;28;20300;-69
2023/12/01 01:20:20;;;;;;;30.88;19.88;;;;;;;;;;5054235;28;20199;-70
2023/12/01 01:22:46;;;;;;;38.50;20.52;;;;;;;;;;5057754;28;20283;-69
2023/12/01 01:25:13;;;;;;;37.35;19.90;;;;;;;;;;5056703;28;20241;-69
2023/12/01 01:27:39;;;;;;;32.58;18.88;;;;;;;;;;5056875;28;20721;-69
2023/12/01 01:30:07;;;;;;;34.85;19.65;;;;;;;;;;5057631;28;20634;-69
2023/12/01 01:32:34;;;;;;;39.78;21.45;;;;;;;;;;5058322;28;20232;-69
2023/12/01 01:35:01;;;;;;;37.90;19.73;;;;;;;;;;5052308;28;20238;-70
2023/12/01 01:37:27;;;;;;;32.17;20.48;;;;;;;;;;5054344;28;20202;-69
2023/12/01 01:39:54;;;;;;;32.45;19.85;;;;;;;;;;5060754;28;20287;-69
2023/12/01 01:42:20;;;;;;;35.22;19.52;;;;;;;;;;5057090;28;20234;-71
2023/12/01 01:44:47;;;;;;;27.77;17.25;;;;;;;;;;5063035;28;20220;-70
2023/12/01 01:47:14;;;;;;;28.92;18.00;;;;;;;;;;5060488;28;20733;-70
2023/12/01 01:49:42;;;;;;;35.58;18.35;;;;;;;;;;5059110;28;20202;-71
2023/12/01 01:52:08;;;;;;;29.23;18.42;;;;;;;;;;5063575;28;20237;-71
2023/12/01 01:54:35;;;;;;;31.25;19.15;;;;;;;;;;5061969;28;20225;-71
2023/12/01 01:57:02;;;;;;;29.88;17.92;;;;;;;;;;5063596;28;20202;-70
2023/12/01 01:59:29;;;;;;;38.70;19.90;;;;;;;;;;5063145;28;20210;-71
2023/12/01 02:01:56;;;;;;;31.15;17.58;;;;;;;;;;5064086;28;20214;-71
2023/12/01 02:04:23;;;;;;;33.35;18.67;;;;;;;;;;5062810;28;20209;-71
2023/12/01 02:06:51;;;;;;;28.77;16.65;;;;;;;;;;5067072;28;20668;-72
2023/12/01 02:09:17;;;;;;;29.15;16.88;;;;;;;;;;5063384;28;20207;-71
2023/12/01 02:11:44;;;;;;;32.20;17.05;;;;;;;;;;5068042;28;20748;-71
2023/12/01 02:14:10;;;;;;;32.70;17.33;;;;;;;;;;5060868;28;20211;-71
2023/12/01 02:16:45;;;;;;;37.20;17.73;;;;;;;;;;5065944;28;20247;-71
2023/12/01 02:19:12;;;;;;;28.30;16.27;;;;;;;;;;5066084;28;20194;-71
2023/12/01 02:21:43;;;;;;;30.35;18.48;;;;;;;;;;5064474;28;20295;-71
2023/12/01 02:24:09;;;;;;;24.15;17.05;;;;;;;;;;5035114;28;20234;-70
2023/12/01 02:26:36;;;;;;;34.10;17.88;;;;;;;;;;5012327;28;20215;-70
2023/12/01 02:29:03;;;;;;;28.60;17.10;;;;;;;;;;5014472;28;20215;-71
2023/12/01 02:31:30;;;;;;;26.65;16.70;;;;;;;;;;5028890;28;20567;-71
2023/12/01 02:33:57;;;;;;;26.75;16.48;;;;;;;-142.91;0.00;100169.13;5035168;28;20203;-72
2023/12/01 02:36:23;;;;;;;27.77;15.45;;;;;;;;;;5037210;28;20669;-72
2023/12/01 02:38:51;;;;;;;25.10;15.38;;;;;;;-142.91;0.00;100169.13;5036554;28;20207;-72
2023/12/01 02:41:18;;;;;;;27.55;16.70;;;;;;;;;;5034499;28;20204;-72
2023/12/01 02:43:45;;;;;;;26.67;16.13;;;;;;;-142.91;0.00;100169.13;5030637;28;20215;-75
2023/12/01 02:46:12;;;;;;;21.30;14.25;;;;;;;;;;5043757;28;20968;-72
2023/12/01 02:48:39;;;;;;;29.63;16.58;;;;;;;-142.91;0.00;100169.13;5046597;28;20203;-71
2023/12/01 02:51:06;;;;;;;26.85;15.07;;;;;;;;;;5046006;28;20294;-72
2023/12/01 02:53:33;;;;;;;21.42;14.18;;;;;;;;;;5047962;28;20735;-72
2023/12/01 02:56:01;;;;;;;22.02;14.48;;;;;;;;;;5049326;28;20198;-70
2023/12/01 02:58:28;;;;;;;21.85;14.65;;;;;;;-142.91;0.00;100169.13;5048369;28;20207;-72
2023/12/01 03:00:54;;;;;;;23.90;14.05;;;;;;;;;;5047026;28;20317;-72
2023/12/01 03:03:21;;;;;;;22.50;15.15;;;;;;;;;;5041181;28;20234;-72
2023/12/01 03:05:47;;;;;;;20.38;13.77;;;;;;;-142.91;0.00;100169.13;5048161;28;20289;-72
2023/12/01 03:08:14;;;;;;;27.92;14.45;;;;;;;-142.91;0.00;100169.13;5047004;28;20704;-72
2023/12/01 03:10:41;;;;;;;24.38;14.43;;;;;;;-142.91;0.00;100169.13;5047262;28;20256;-70
2023/12/01 03:13:10;;;;;;;20.90;13.63;;;;;;;;;;5047459;28;20593;-70
2023/12/01 03:15:37;;;;;;;22.27;13.77;;;;;;;;;;5047470;28;20198;-70
2023/12/01 03:18:03;;;;;;;23.77;14.52;;;;;;;;;;5042639;28;20261;-70
2023/12/01 03:20:30;;;;;;;19.88;13.32;;;;;;;;;;5048483;28;20292;-70
2023/12/01 03:22:57;;;;;;;19.95;13.10;;;;;;;-142.91;0.00;100169.13;5047654;28;20316;-70
2023/12/01 03:25:23;;;;;;;21.85;14.02;;;;;;;;;;5041760;28;20292;-71
2023/12/01 03:27:50;;;;;;;18.45;12.85;;;;;;;;;;5045293;28;20287;-71
2023/12/01 03:30:18;;;;;;;21.48;11.85;;;;;;;;;;5048204;28;20203;-70
2023/12/01 03:32:44;;;;;;;17.25;12.23;;;;;;;;;;5042714;28;20280;-71
2023/12/01 03:35:12;;;;;;;17.80;12.35;;;;;;;;;;5042950;28;20326;-71
2023/12/01 03:37:38;;;;;;;17.90;11.27;;;;;;;-142.91;0.00;100169.13;5047083;28;20282;-69
2023/12/01 03:40:08;;;;;;;18.60;11.68;;;;;;;;;;5048325;28;20211;-70
2023/12/01 03:42:34;;;;;;;17.33;11.88;;;;;;;;;;5047932;28;20201;-70
2023/12/01 03:45:01;;;;;;;18.88;12.70;;;;;;;;;;5046353;28;20218;-71
2023/12/01 03:47:29;;;;;;;18.27;12.40;;;;;;;-142.91;0.00;100169.13;5044899;28;20258;-70
2023/12/01 03:49:56;;;;;;;19.10;10.43;;;;;;;-142.91;0.00;100169.13;5045873;28;20203;-71
2023/12/01 03:52:22;;;;;;;16.38;12.20;;;;;;;-142.91;0.00;100169.13;5047128;28;20199;-71
2023/12/01 03:54:49;;;;;;;21.80;13.00;;;;;;;;;;5046140;28;20256;-71
2023/12/01 03:57:15;;;;;;;20.02;12.35;;;;;;;;;;5046305;28;20199;-70
2023/12/01 03:59:42;;;;;;;16.73;11.55;;;;;;;;;;5045985;28;20231;-71
2023/12/01 04:02:08;;;;;;;18.50;11.52;;;;;;;-142.91;0.00;100169.13;5047745;28;20261;-71
2023/12/01 04:04:38;;;;;;;17.13;11.32;;;;;;;-142.91;0.00;100169.13;5046117;28;20257;-71
2023/12/01 04:07:07;;;;;;;19.55;12.07;;;;;;;;;;5046316;28;20226;-71
2023/12/01 04:09:35;;;;;;;16.48;11.43;;;;;;;-142.91;0.00;100169.13;5046352;28;20203;-71
2023/12/01 04:12:02;;;;;;;12.23;10.68;;;;;;;-142.91;0.00;100169.13;5046700;28;20222;-71
2023/12/01 04:14:29;;;;;;;17.98;11.98;;;;;;;;;;5046372;28;20207;-71
2023/12/01 04:16:56;;;;;;;18.13;11.70;;;;;;;-142.91;0.00;100169.13;5045646;28;20704;-70
2023/12/01 04:19:23;;;;;;;19.13;11.52;;;;;;;;;;5046443;28;20199;-70
2023/12/01 04:21:52;;;;;;;15.57;12.45;;;;;;;-142.91;0.00;100169.13;5046108;28;20239;-71
2023/12/01 04:24:19;;;;;;;19.88;11.82;;;;;;;;;;5043410;28;20219;-70
2023/12/01 04:26:48;;;;;;;18.95;12.63;;;;;;;-142.91;0.00;100169.13;5045236;28;20219;-70
2023/12/01 04:29:14;;;;;;;19.40;12.00;;;;;;;;;;5046103;28;20280;-71
2023/12/01 04:31:41;;;;;;;20.48;12.70;;;;;;;;;;5045765;28;20318;-70
2023/12/01 04:34:07;;;;;;;21.33;11.52;;;;;;;;;;5044304;28;20199;-70
2023/12/01 04:36:34;;;;;;;18.05;11.27;;;;;;;;;;5046034;28;20295;-70
2023/12/01 04:39:03;;;;;;;20.50;11.38;;;;;;;;;;5044741;28;20754;-71
2023/12/01 04:41:30;;;;;;;20.92;11.23;;;;;;;;;;5044798;28;20207;-71
2023/12/01 04:43:56;;;;;;;19.63;11.57;;;;;;;-142.91;0.00;100169.13;5044304;28;20207;-70
2023/12/01 04:46:23;;;;;;;19.33;11.68;;;;;;;;;;5044299;28;20762;-70
2023/12/01 04:48:49;;;;;;;17.23;11.57;;;;;;;;;;5045876;28;20226;-70
2023/12/01 04:51:17;;;;;;;19.38;11.93;;;;;;;-142.91;0.00;100169.13;5045844;28;20296;-70
2023/12/01 04:53:44;;;;;;;17.15;11.13;;;;;;;-142.91;0.00;100169.13;5044285;28;20222;-71
2023/12/01 04:56:13;;;;;;;20.15;12.70;;;;;;;;;;5043257;28;20226;-71
2023/12/01 04:58:39;;;;;;;16.52;11.38;;;;;;;-142.91;0.00;100169.13;5045538;28;20195;-71
2023/12/01 05:01:07;;;;;;;15.70;11.40;;;;;;;-142.91;0.00;100169.13;5045577;28;20195;-71
2023/12/01 05:03:34;;;;;;;15.23;11.65;;;;;;;;;;5045384;28;20241;-71
2023/12/01 05:06:00;;;;;;;18.30;11.93;;;;;;;;;;5045475;28;20203;-71
2023/12/01 05:08:27;;;;;;;14.60;12.13;;;;;;;;;;5045127;28;20716;-71
2023/12/01 05:10:56;;;;;;;18.05;11.88;;;;;;;;;;5045926;28;20224;-71
2023/12/01 05:13:23;;;;;;;17.92;11.75;;;;;;;;;;5044366;28;20203;-71
2023/12/01 05:15:50;;;;;;;19.73;12.48;;;;;;;;;;5044545;28;20330;-71
2023/12/01 05:18:16;;;;;;;15.07;10.73;;;;;;;;;;5045168;28;20237;-71
2023/12/01 05:20:43;;;;;;;14.65;11.30;;;;;;;;;;5044301;28;20291;-71
2023/12/01 05:23:10;;;;;;;15.15;11.00;;;;;;;-142.91;0.00;100169.13;5045210;28;20199;-72
2023/12/01 05:25:38;;;;;;;18.05;11.05;;;;;;;;;;5044660;28;20199;-71
2023/12/01 05:28:04;;;;;;;20.17;11.23;;;;;;;;;;5044414;28;20251;-70
2023/12/01 05:30:34;;;;;;;19.15;12.38;;;;;;;-142.91;0.00;100169.13;5042817;28;20680;-72
2023/12/01 05:33:00;;;;;;;15.68;11.38;;;;;;;;;;5044098;28;20246;-71
2023/12/01 05:35:27;;;;;;;23.77;14.27;;;;;;;;;;5044721;28;20199;-71
2023/12/01 05:37:54;;;;;;;16.95;10.15;;;;;;;-142.91;0.00;100169.13;5045720;28;20195;-71
2023/12/01 05:40:21;;;;;;;17.95;11.63;;;;;;;;;;5045254;28;20265;-71
2023/12/01 05:42:49;;;;;;;18.55;12.02;;;;;;;-142.91;0.00;100169.13;5044807;28;20284;-72
2023/12/01 05:45:16;;;;;;;17.60;12.23;;;;;;;;;;5044191;28;20290;-71
2023/12/01 05:47:46;;;;;;;15.70;12.38;;;;;;;-142.91;0.00;100169.13;5045200;28;20250;-72
2023/12/01 05:50:14;;;;;;;16.48;12.32;;;;;;;-142.91;0.00;100169.13;5043591;28;20204;-71
2023/12/01 05:52:42;;;;;;;17.50;12.57;;;;;;;23.26;0.00;169250.47;5044251;28;20286;-71
2023/12/01 05:55:14;;;;;;;23.10;12.95;;;;;;;-142.91;0.00;100169.13;5044013;28;20634;-71
2023/12/01 05:57:42;;;;;;;18.05;12.40;;;;;;;;;;5043776;28;20195;-72
2023/12/01 06:00:12;;;;;;;22.27;14.63;;;;;;;;;;5044563;28;20199;-71
2023/12/01 06:02:39;;;;;;;30.83;16.75;;;;;;;;;;5043024;28;20207;-71
2023/12/01 06:05:08;;;;;;;37.30;21.35;;;;;;;-142.91;0.00;100169.13;5043199;28;20199;-71
2023/12/01 06:07:35;;;;;;;33.05;18.83;;;;;;;;;;5042116;28;20215;-72
2023/12/01 06:10:01;;;;;;;37.67;22.63;;;;;;;;;;5044208;28;20223;-71
2023/12/01 06:12:28;;;;;;;37.03;20.20;;;;;;;;;;5044878;28;20234;-71
2023/12/01 06:14:54;;;;;;;40.25;22.33;;;;;;;;;;5043641;28;20199;-70
2023/12/01 06:17:21;;;;;;;39.28;24.35;;;;;;;;;;5044255;28;20252;-70
2023/12/01 06:19:47;;;;;;;31.08;19.30;;;;;;;;;;5044157;28;20207;-73
2023/12/01 06:22:15;;;;;;;27.42;16.25;;;;;;;;;;5043592;28;20270;-70
2023/12/01 06:24:41;;;;;;;38.05;22.58;;;;;;;;;;5040575;28;20214;-71
2023/12/01 06:27:08;;;;;;;35.08;21.02;;;;;;;;;;5042751;28;20202;-71
2023/12/01 06:29:34;;;;;;;24.20;15.00;;;;;;;;;;5045437;28;20203;-71
2023/12/01 06:32:01;;;;;;;33.38;18.65;;;;;;;;;;5043474;28;20976;-72
2023/12/01 06:34:28;;;;;;;21.92;15.95;;;;;;;;;;5044498;28;20264;-72
2023/12/01 06:36:58;;;;;;;30.45;16.75;;;;;;;-142.91;0.00;100169.13;5044320;28;20207;-72
2023/12/01 06:39:26;;;;;;;30.50;17.23;;;;;;;;;;5043763;28;20625;-73
2023/12/01 06:41:53;;;;;;;26.02;17.17;;;;;;;;;;5042262;28;20199;-73
2023/12/01 06:44:19;;;;;;;25.30;14.57;;;;;;;;;;5043131;28;20196;-71
2023/12/01 06:46:46;;;;;;;20.52;13.82;;;;;;;;;;5041495;28;20207;-72
2023/12/01 06:49:12;;;;;;;33.08;17.67;;;;;;;;;;5041676;28;20215;-73
2023/12/01 06:51:39;;;;;;;21.55;13.77;;;;;;;;;;5041331;28;20239;-71
2023/12/01 06:54:09;;;;;;;19.67;13.63;;;;;;;;;;5043146;28;20285;-72
2023/12/01 06:56:37;;;;;;;20.98;14.20;;;;;;;;;;5042851;28;20691;-71
2023/12/01 06:59:04;;;;;;;27.95;14.80;;;;;;;;;;5044220;28;20199;-73
2023/12/01 07:01:31;;;;;;;19.00;12.15;;;;;;;;;;5043887;28;20696;-73
2023/12/01 07:03:57;;;;;;;17.60;12.32;;;;;;;;;;5044708;28;20769;-72
2023/12/01 07:06:23;;;;;;;20.13;14.95;;;;;;;;;;5046758;28;20199;-71
2023/12/01 07:08:50;;;;;;;20.40;13.93;;;;;;;;;;5047561;28;20277;-72
2023/12/01 07:11:17;;;;;;;23.08;14.45;;;;;;;;;;5047321;28;20203;-73
2023/12/01 07:13:47;;;;;;;18.17;13.50;;;;;;;-142.91;0.00;100169.13;5047335;28;20287;-71
2023/12/01 07:16:15;;;;;;;17.75;12.68;;;;;;;-142.91;0.00;100169.13;5046539;28;20210;-71
2023/12/01 07:18:43;;;;;;;31.67;14.90;;;;;;;;;;5047733;28;20284;-72
2023/12/01 07:21:09;;;;;;;23.08;14.75;;;;;;;;;;5046493;28;20696;-71
2023/12/01 07:23:36;;;;;;;25.98;14.77;;;;;;;;;;5047856;28;20252;-71
2023/12/01 07:26:03;;;;;;;28.00;16.15;;;;;;;;;;5045598;28;20294;-73
2023/12/01 07:28:29;;;;;;;20.65;16.25;;;;;;;;;;5044819;28;20223;-71
2023/12/01 07:30:59;;;;;;;24.23;14.55;;;;;;;;;;5046137;28;20234;-70
2023/12/01 07:33:26;;;;;;;22.40;14.73;;;;;;;;;;5044872;28;20287;-71
2023/12/01 07:35:53;;;;;;;22.85;13.10;;;;;;;;;;5044347;28;20238;-71
2023/12/01 07:38:20;;;;;;;22.55;14.05;;;;;;;;;;5044461;28;20280;-71
2023/12/01 07:40:53;;;;;;;20.02;12.82;;;;;;;-142.91;0.00;100169.13;5044897;28;20229;-72
2023/12/01 07:43:23;;;;;;;22.20;12.90;;;;;;;-142.91;0.00;100169.13;5045367;28;20202;-71
2023/12/01 07:45:50;;;;;;;22.30;14.35;;;;;;;;;;5023723;28;20195;-73
2023/12/01 07:48:18;;;;;;;17.75;12.18;;;;;;;;;;5044934;28;20590;-71
2023/12/01 07:50:45;;;;;;;24.48;13.13;;;;;;;;;;5043517;28;20199;-73
2023/12/01 07:53:12;;;;;;;19.73;12.95;;;;;;;;;;5045151;28;20671;-71
2023/12/01 07:55:40;;;;;;;27.58;14.10;;;;;;;;;;5045865;28;20241;-71
2023/12/01 07:58:07;;;;;;;20.45;13.32;;;;;;;;;;5040342;28;20196;-72
2023/12/01 08:00:33;;;;;;;23.60;13.93;;;;;;;;;;5043787;28;20676;-72
2023/12/01 08:03:00;;;;;;;25.00;14.07;;;;;;;;;;5042971;28;20300;-72
2023/12/01 08:05:28;;;;;;;25.67;14.88;;;;;;;-142.91;0.00;100169.13;5046614;28;20199;-71
2023/12/01 08:07:54;;;;;;;25.77;15.20;;;;;;;;;;5046339;28;20311;-73
2023/12/01 08:10:21;;;;;;;23.13;14.73;;;;;;;;;;5046828;28;20680;-72
2023/12/01 08:12:48;;;;;;;25.65;14.23;;;;;;;;;;5043825;28;20265;-72
2023/12/01 08:15:15;;;;;;;24.85;14.20;;;;;;;;;;5045757;28;20255;-71
2023/12/01 08:17:42;;;;;;;22.67;15.00;;;;;;;;;;5046000;28;20218;-71
2023/12/01 08:20:10;;;;;;;26.02;15.05;;;;;;;;;;5046259;28;20700;-71
2023/12/01 08:22:38;;;;;;;28.33;15.23;;;;;;;;;;5045710;28;20711;-70
2023/12/01 08:25:06;;;;;;;25.10;14.68;;;;;;;;;;5046422;28;20237;-71
2023/12/01 08:27:33;;;;;;;23.08;14.00;;;;;;;;;;5045433;28;20207;-71
2023/12/01 08:29:59;;;;;;;23.45;13.63;;;;;;;;;;5045279;28;20264;-72
2023/12/01 08:32:26;;;;;;;20.38;13.45;;;;;;;;;;5043486;28;20219;-71
2023/12/01 08:34:54;;;;;;;28.88;16.23;;;;;;;;;;5043304;28;20649;-71
2023/12/01 08:37:20;;;;;;;29.15;16.92;;;;;;;;;;5044223;28;20592;-71
2023/12/01 08:39:49;;;;;;;26.05;17.85;;;;;;;;;;5043690;28;20191;-71
2023/12/01 08:42:15;;;;;;;26.73;16.05;;;;;;;;;;5037681;28;20203;-72
2023/12/01 08:44:42;;;;;;;28.98;12.88;;;;;;;;;;5043575;28;20207;-72
2023/12/01 08:47:09;;;;;;;26.02;16.23;;;;;;;;;;5043382;28;20265;-71
2023/12/01 08:49:36;;;;;;;27.92;17.67;;;;;;;;;;5044093;28;20615;-71
2023/12/01 08:52:02;;;;;;;26.27;16.25;;;;;;;;;;5042758;28;20230;-71
2023/12/01 08:54:29;;;;;;;29.75;16.73;;;;;;;-142.91;0.00;100169.13;5044003;28;20640;-72
2023/12/01 08:56:58;;;;;;;25.77;15.63;;;;;;;-142.91;0.00;100169.13;5043693;28;20230;-72
2023/12/01 08:59:25;;;;;;;26.00;16.50;;;;;;;;;;5044280;28;20661;-72
2023/12/01 09:01:54;;;;;;;22.30;16.52;;;;;;;-142.91;0.00;100169.13;5043125;28;20245;-73
2023/12/01 09:04:22;;;;;;;27.70;18.42;;;;;;;;;;5045070;28;20237;-73
2023/12/01 09:06:48;;;;;;;22.20;14.48;;;;;;;;;;5041106;28;20207;-71
2023/12/01 09:09:16;;;;;;;25.90;14.95;;;;;;;;;;5045291;28;20939;-74
2023/12/01 09:14:31;;;;;;;18.48;13.18;;;;;;;-142.91;0.00;100169.13;5051531;28;20198;-72
2023/12/01 09:16:58;;;;;;;21.73;12.77;;;;;;;-142.91;0.00;100169.13;5045056;28;20543;-71
2023/12/01 09:19:24;;;;;;;21.70;12.93;;;;;;;;;;5048471;28;20252;-71
2023/12/01 09:21:50;;;;;;;23.65;11.95;;;;;;;;;;5052711;28;20265;-72
2023/12/01 09:24:17;;;;;;;14.93;11.70;;;;;;;;;;5045541;28;20206;-72
2023/12/01 09:26:45;;;;;;;15.85;11.48;;;;;;;;;;5045067;28;20261;-73
2023/12/01 09:29:11;;;;;;;27.63;15.57;;;;;;;;;;5043897;28;20258;-72
2023/12/01 09:31:44;;;;;;;23.15;13.98;;;;;;;;;;5048664;28;20308;-72
2023/12/01 09:34:11;;;;;;;28.92;15.20;;;;;;;;;;5045405;28;20245;-72
2023/12/01 09:36:48;;;;;;;25.20;15.65;;;;;;;-142.91;0.00;100169.13;5047311;28;20276;-75
2023/12/01 09:39:16;;;;;;;26.75;15.05;;;;;;;;;;5046458;28;20207;-71
2023/12/01 09:41:44;;;;;;;24.63;15.98;;;;;;;;;;5047964;28;20207;-72
2023/12/01 09:44:10;;;;;;;28.83;16.15;;;;;;;-142.91;0.00;100169.13;5053631;28;20203;-72
2023/12/01 09:46:39;;;;;;;28.90;16.45;;;;;;;;;;5048916;28;20300;-73
2023/12/01 09:49:07;;;;;;;35.80;20.20;;;;;;;;;;5057433;28;20275;-72
2023/12/01 09:51:36;;;;;;;28.40;17.05;;;;;;;;;;5052559;28;20207;-71
2023/12/01 09:54:03;;;;;;;25.60;17.15;;;;;;;;;;5056351;28;20198;-71
2023/12/01 09:56:30;;;;;;;27.25;16.20;;;;;;;;;;5050718;28;20198;-72
2023/12/01 09:58:57;;;;;;;31.88;18.55;;;;;;;;;;5060538;28;20236;-71
2023/12/01 10:01:36;;;;;;;29.48;17.65;;;;;;;;;;5053161;28;20242;-72
2023/12/01 10:04:03;;;;;;;30.83;17.85;;;;;;;;;;5056019;28;20279;-72
2023/12/01 10:06:32;;;;;;;28.35;17.40;;;;;;;;;;5045338;28;20213;-73
2023/12/01 10:08:58;;;;;;;26.48;16.17;;;;;;;;;;5032529;28;20781;-71
2023/12/01 10:11:26;;;;;;;32.55;17.13;;;;;;;;;;5052893;28;20198;-72
2023/12/01 10:13:53;;;;;;;23.17;14.88;;;;;;;;;;5046680;28;20206;-71
2023/12/01 10:16:20;;;;;;;21.45;14.93;;;;;;;;;;5047948;28;20206;-72
2023/12/01 10:18:57;;;;;;;15.93;12.20;;;;;;;;;;5041818;28;20215;-72
2023/12/01 10:21:43;;;;;;;19.75;12.90;;;;;;;-142.91;0.00;100169.13;5039521;28;20321;-73
2023/12/01 10:24:14;;;;;;;15.35;10.52;;;;;;;;;;5043478;28;20226;-72
2023/12/01 10:26:41;;;;;;;14.02;10.38;;;;;;;;;;5042923;28;20290;-72
2023/12/01 10:29:22;;;;;;;15.05;11.63;;;;;;;;;;5045613;28;20273;-72
2023/12/01 10:31:49;;;;;;;18.92;12.45;;;;;;;;;;5040178;28;20796;-72
2023/12/01 10:34:15;;;;;;;17.25;12.43;;;;;;;;;;4998027;28;21061;-73
2023/12/01 10:42:33;;;;;;;24.48;15.02;;;;;;;;;;5045610;28;20264;-71
2023/12/01 10:45:00;;;;;;;29.83;15.23;;;;;;;;;;5040984;28;20253;-72
2023/12/01 10:47:28;;;;;;;28.65;16.08;;;;;;;;;;5031228;28;20269;-72
2023/12/01 10:49:55;;;;;;;22.17;14.57;;;;;;;;;;5039006;28;20222;-72
2023/12/01 10:52:24;;;;;;;23.75;15.70;;;;;;;;;;5051703;28;20206;-73
2023/12/01 10:54:52;;;;;;;24.65;15.38;;;;;;;-142.91;0.00;100169.13;5053693;28;20199;-72
2023/12/01 10:57:27;;;;;;;43.38;25.58;;;;;;;;;;5056560;28;20256;-73
2023/12/01 10:59:56;;;;;;;41.90;25.20;;;;;;;;;;5050025;28;20190;-72
2023/12/01 11:02:24;;;;;;;40.67;23.02;;;;;;;;;;5016114;28;20300;-72
2023/12/01 11:04:51;;;;;;;36.08;22.77;;;;;;;;;;5009977;28;20440;-73
2023/12/01 11:07:34;;;;;;;48.20;26.60;;;;;;;;;;5040152;28;20207;-73
2023/12/01 11:10:43;;;;;;;34.17;22.98;;;;;;;-142.91;0.00;100169.13;5041139;28;20801;-74
2023/12/01 11:22:02;;;;;;;43.85;24.33;;;;;;;-142.91;0.00;100169.13;5039868;28;20691;-75
2023/12/01 11:24:35;;;;;;;33.35;22.27;;;;;;;;;;5040633;28;20207;-72
2023/12/01 11:27:05;;;;;;;38.63;21.35;;;;;;;;;;5039781;28;20245;-74
2023/12/01 11:29:41;;;;;;;31.48;21.20;;;;;;;;;;5046561;28;20222;-74
2023/12/01 11:32:10;;;;;;;39.63;21.23;;;;;;;-142.91;0.00;100169.13;5045287;28;20215;-75
2023/12/01 11:34:57;;;;;;;24.10;16.73;;;;;;;;;;5049466;28;20206;-73
2023/12/01 11:37:48;;;;;;;28.67;19.02;;;;;;;;;;5046000;28;20260;-73
2023/12/01 11:40:23;;;;;;;33.72;21.38;;;;;;;;;;5053545;28;20263;-73
2023/12/01 11:42:50;;;;;;;33.40;19.70;;;;;;;;;;5048013;28;20190;-72
2023/12/01 11:45:16;;;;;;;34.35;18.05;;;;;;;;;;5054302;28;20218;-74
2023/12/01 11:47:43;;;;;;;32.90;17.70;;;;;;;;;;5046981;28;20199;-72
2023/12/01 11:50:12;;;;;;;12.82;10.32;;;;;;;;;;5045800;28;20304;-73
2023/12/01 11:52:38;;;;;;;7.85;7.07;;;;;;;;;;5051718;28;20299;-73
2023/12/01 11:55:15;;;;;;;8.68;6.70;;;;;;;;;;5038924;28;20691;-75
2023/12/01 11:57:44;;;;;;;6.65;5.88;;;;;;;;;;5046652;28;20199;-73
2023/12/01 12:00:11;;;;;;;15.75;7.78;;;;;;;;;;5027678;28;20245;-73
2023/12/01 12:02:37;;;;;;;7.75;6.40;;;;;;;;;;5045496;28;20231;-73
2023/12/01 12:05:05;;;;;;;6.82;3.58;;;;;;;;;;5046928;28;20230;-74
2023/12/01 12:07:32;;;;;;;14.52;7.50;;;;;;;;;;5054803;28;20526;-73
2023/12/01 12:09:59;;;;;;;6.78;5.40;;;;;;;;;;5052737;28;20254;-73
2023/12/01 12:12:25;;;;;;;11.05;7.95;;;;;;;;;;5048935;28;20199;-73
2023/12/01 12:14:55;;;;;;;9.30;8.00;;;;;;;;;;5052080;28;20273;-73
2023/12/01 12:17:23;;;;;;;12.23;8.65;;;;;;;;;;5056754;28;20428;-72
2023/12/01 12:19:51;;;;;;;16.35;9.20;;;;;;;;;;5056589;28;20205;-73
2023/12/01 12:22:19;;;;;;;14.93;9.57;;;;;;;;;;5059640;28;20245;-73
2023/12/01 12:24:46;;;;;;;15.63;10.32;;;;;;;;;;5064728;28;20206;-74
2023/12/01 12:27:12;;;;;;;10.32;8.40;;;;;;;;;;5063854;28;20203;-73
2023/12/01 12:29:39;;;;;;;8.57;6.97;;;;;;;;;;5064127;28;20599;-73
2023/12/01 12:32:08;;;;;;;3.60;3.05;;;;;;;;;;5064789;28;20277;-73
2023/12/01 12:34:34;;;;;;;2.97;2.67;;;;;;;;;;5063326;28;20712;-73
2023/12/01 12:37:01;;;;;;;2.15;2.03;;;;;;;;;;5062386;28;20199;-74
2023/12/01 12:39:28;;;;;;;4.28;2.30;;;;;;;;;;5065789;28;20263;-74
2023/12/01 12:41:57;;;;;;;2.55;2.35;;;;;;;;;;5063538;28;20299;-74
2023/12/01 12:44:24;;;;;;;1.90;1.80;;;;;;;;;;5058056;28;20211;-73
2023/12/01 12:47:00;;;;;;;3.42;2.10;;;;;;;;;;5056161;28;20229;-73
2023/12/01 12:49:30;;;;;;;2.17;1.70;;;;;;;;;;5058372;28;20241;-73
2023/12/01 12:51:58;;;;;;;2.00;1.80;;;;;;;;;;5059855;28;20206;-74
2023/12/01 12:54:24;;;;;;;1.60;1.50;;;;;;;;;;5058561;28;20599;-74
2023/12/01 12:56:50;;;;;;;1.90;1.80;;;;;;;;;;5061033;28;20692;-74
2023/12/01 12:59:17;;;;;;;1.92;1.50;;;;;;;;;;5056127;28;20194;-74
2023/12/01 13:01:44;;;;;;;2.15;1.40;;;;;;;;;;5055900;28;20715;-73
2023/12/01 13:04:10;;;;;;;3.72;1.33;;;;;;;;;;5057389;28;20202;-73
2023/12/01 13:06:38;;;;;;;1.33;1.20;;;;;;;;;;5056696;28;20202;-72
2023/12/01 13:09:05;;;;;;;3.15;1.88;;;;;;;;;;5056036;28;20202;-74
2023/12/01 13:11:31;;;;;;;2.80;1.83;;;;;;;;;;5053657;28;20320;-73
2023/12/01 13:13:58;;;;;;;5.28;2.00;;;;;;;;;;5058561;28;20194;-73
2023/12/01 13:16:24;;;;;;;4.88;1.20;;;;;;;;;;5056356;28;20268;-73
2023/12/01 13:18:50;;;;;;;5.13;1.73;;;;;;;;;;5057407;28;20197;-72
2023/12/01 13:21:17;;;;;;;1.50;1.38;;;;;;;;;;5052971;28;20231;-72
2023/12/01 13:23:45;;;;;;;2.60;1.38;;;;;;;;;;5044783;28;20295;-72
2023/12/01 13:26:12;;;;;;;4.28;1.65;;;;;;;;;;5043432;28;20239;-72
2023/12/01 13:28:39;;;;;;;4.15;1.13;;;;;;;;;;5048080;28;20314;-74
2023/12/01 13:31:05;;;;;;;2.60;1.25;;;;;;;;;;5047615;28;20342;-73
2023/12/01 13:33:32;;;;;;;1.95;1.75;;;;;;;;;;5044387;28;20207;-75
2023/12/01 13:35:58;;;;;;;1.90;1.50;;;;;;;;;;5046212;28;20257;-72
2023/12/01 13:38:25;;;;;;;4.10;2.20;;;;;;;;;;5052302;28;20211;-71
2023/12/01 13:40:53;;;;;;;2.63;1.95;;;;;;;;;;5048931;28;20218;-74
2023/12/01 13:43:20;;;;;;;2.15;1.85;;;;;;;189.72;0.00;100169.13;5048385;28;20213;-73
2023/12/01 13:45:46;;;;;;;1.77;1.67;;;;;;;;;;5054255;28;20230;-73
2023/12/01 13:48:13;;;;;;;4.47;2.55;;;;;;;;;;5054016;28;20203;-73
2023/12/01 13:50:39;;;;;;;2.28;2.10;;;;;;;;;;5050117;28;20231;-73
2023/12/01 13:53:06;;;;;;;4.05;2.22;;;;;;;;;;5045863;28;20654;-72